sensor_id;sensor_type;location;lat;lon;timestamp;temperature;humidity
326;DHT22;150;52.352;14.058;2023-05-07T00:01:03;10.80;53.20
326;DHT22;150;52.352;14.058;2023-05-07T00:03:43;10.90;53.00
326;DHT22;150;52.352;14.058;2023-05-07T00:06:32;10.90;53.10
326;DHT22;150;52.352;14.058;2023-05-07T01:18:40;10.70;52.70
326;DHT22;150;52.352;14.058;2023-05-07T02:20:28;10.70;51.50
326;DHT22;150;52.352;14.058;2023-05-07T02:24:20;10.60;51.90
326;DHT22;150;52.352;14.058;2023-05-07T02:39:08;10.90;51.20
326;DHT22;150;52.352;14.058;2023-05-07T02:42:19;10.80;50.90
326;DHT22;150;52.352;14.058;2023-05-07T03:25:53;10.60;50.60
326;DHT22;150;52.352;14.058;2023-05-07T03:29:36;10.60;51.10
326;DHT22;150;52.352;14.058;2023-05-07T03:39:49;10.50;51.00
326;DHT22;150;52.352;14.058;2023-05-07T03:54:38;10.40;50.40
326;DHT22;150;52.352;14.058;2023-05-07T03:57:04;10.40;51.00
326;DHT22;150;52.352;14.058;2023-05-07T04:00:17;10.30;50.70
326;DHT22;150;52.352;14.058;2023-05-07T04:04:39;10.30;50.90
326;DHT22;150;52.352;14.058;2023-05-07T04:07:02;10.30;50.70
326;DHT22;150;52.352;14.058;2023-05-07T04:10:44;10.30;51.60
326;DHT22;150;52.352;14.058;2023-05-07T04:17:14;10.50;50.00
326;DHT22;150;52.352;14.058;2023-05-07T04:20:04;10.50;49.30
326;DHT22;150;52.352;14.058;2023-05-07T05:16:04;11.10;46.10
326;DHT22;150;52.352;14.058;2023-05-07T05:26:01;11.50;43.70
326;DHT22;150;52.352;14.058;2023-05-07T05:34:59;12.00;40.70
326;DHT22;150;52.352;14.058;2023-05-07T05:41:12;12.20;39.70
326;DHT22;150;52.352;14.058;2023-05-07T05:43:11;12.00;39.60
326;DHT22;150;52.352;14.058;2023-05-07T05:54:13;11.80;41.20
326;DHT22;150;52.352;14.058;2023-05-07T05:57:07;11.70;41.10
326;DHT22;150;52.352;14.058;2023-05-07T06:00:20;11.60;41.10
326;DHT22;150;52.352;14.058;2023-05-07T06:04:22;11.60;42.00
326;DHT22;150;52.352;14.058;2023-05-07T06:07:45;11.60;41.20
326;DHT22;150;52.352;14.058;2023-05-07T06:11:04;11.70;42.00
326;DHT22;150;52.352;14.058;2023-05-07T06:38:39;13.00;37.00
326;DHT22;150;52.352;14.058;2023-05-07T06:41:59;13.00;35.10
326;DHT22;150;52.352;14.058;2023-05-07T06:49:33;13.00;35.10
326;DHT22;150;52.352;14.058;2023-05-07T06:54:44;12.90;36.20
326;DHT22;150;52.352;14.058;2023-05-07T07:03:03;13.00;37.20
326;DHT22;150;52.352;14.058;2023-05-07T07:09:47;12.90;35.10
326;DHT22;150;52.352;14.058;2023-05-07T07:33:48;13.80;32.20
326;DHT22;150;52.352;14.058;2023-05-07T07:36:53;14.00;30.90
326;DHT22;150;52.352;14.058;2023-05-07T07:39:39;13.80;30.70
326;DHT22;150;52.352;14.058;2023-05-07T07:42:13;13.90;31.00
326;DHT22;150;52.352;14.058;2023-05-07T07:44:48;14.00;31.40
326;DHT22;150;52.352;14.058;2023-05-07T09:10:55;15.30;25.80
326;DHT22;150;52.352;14.058;2023-05-07T09:13:57;15.50;25.40
326;DHT22;150;52.352;14.058;2023-05-07T09:20:42;15.20;26.30
326;DHT22;150;52.352;14.058;2023-05-07T09:27:25;15.60;26.00
326;DHT22;150;52.352;14.058;2023-05-07T09:33:37;15.90;23.40
326;DHT22;150;52.352;14.058;2023-05-07T09:36:47;16.00;23.30
326;DHT22;150;52.352;14.058;2023-05-07T09:49:59;15.50;23.70
326;DHT22;150;52.352;14.058;2023-05-07T09:52:59;15.60;24.40
326;DHT22;150;52.352;14.058;2023-05-07T09:55:42;15.70;24.50
326;DHT22;150;52.352;14.058;2023-05-07T10:02:29;16.20;22.70
326;DHT22;150;52.352;14.058;2023-05-07T10:05:30;16.00;23.70
326;DHT22;150;52.352;14.058;2023-05-07T10:09:02;15.70;23.50
326;DHT22;150;52.352;14.058;2023-05-07T10:12:19;15.50;23.30
326;DHT22;150;52.352;14.058;2023-05-07T10:14:58;15.60;23.40
326;DHT22;150;52.352;14.058;2023-05-07T10:17:41;15.80;23.50
326;DHT22;150;52.352;14.058;2023-05-07T10:20:25;15.80;22.70
326;DHT22;150;52.352;14.058;2023-05-07T10:23:10;15.90;22.60
326;DHT22;150;52.352;14.058;2023-05-07T10:26:23;15.80;22.20
326;DHT22;150;52.352;14.058;2023-05-07T10:39:40;16.40;21.00
326;DHT22;150;52.352;14.058;2023-05-07T10:43:15;16.20;20.90
326;DHT22;150;52.352;14.058;2023-05-07T10:53:22;16.10;21.40
326;DHT22;150;52.352;14.058;2023-05-07T11:06:12;16.80;20.30
326;DHT22;150;52.352;14.058;2023-05-07T11:09:01;17.10;20.20
326;DHT22;150;52.352;14.058;2023-05-07T11:11:52;17.00;19.60
326;DHT22;150;52.352;14.058;2023-05-07T11:14:44;17.00;20.20
326;DHT22;150;52.352;14.058;2023-05-07T11:17:11;17.10;20.00
326;DHT22;150;52.352;14.058;2023-05-07T11:19:51;17.10;19.60
326;DHT22;150;52.352;14.058;2023-05-07T11:22:39;16.90;19.80
326;DHT22;150;52.352;14.058;2023-05-07T11:25:11;16.50;19.20
326;DHT22;150;52.352;14.058;2023-05-07T11:27:52;16.40;19.80
326;DHT22;150;52.352;14.058;2023-05-07T11:30:36;16.40;20.20
326;DHT22;150;52.352;14.058;2023-05-07T11:33:17;16.20;19.60
326;DHT22;150;52.352;14.058;2023-05-07T11:35:50;16.10;20.60
326;DHT22;150;52.352;14.058;2023-05-07T11:38:33;16.00;20.90
326;DHT22;150;52.352;14.058;2023-05-07T11:41:16;16.00;20.70
326;DHT22;150;52.352;14.058;2023-05-07T11:44:10;16.20;21.00
326;DHT22;150;52.352;14.058;2023-05-07T11:46:55;16.20;21.00
326;DHT22;150;52.352;14.058;2023-05-07T11:49:26;16.30;20.60
326;DHT22;150;52.352;14.058;2023-05-07T11:52:04;16.50;20.20
326;DHT22;150;52.352;14.058;2023-05-07T11:54:37;16.60;19.30
326;DHT22;150;52.352;14.058;2023-05-07T11:57:04;16.80;20.10
326;DHT22;150;52.352;14.058;2023-05-07T11:59:47;17.00;19.80
326;DHT22;150;52.352;14.058;2023-05-07T12:02:30;17.20;19.10
326;DHT22;150;52.352;14.058;2023-05-07T12:05:04;17.40;19.40
326;DHT22;150;52.352;14.058;2023-05-07T12:07:33;17.60;18.10
326;DHT22;150;52.352;14.058;2023-05-07T12:10:06;17.90;19.00
326;DHT22;150;52.352;14.058;2023-05-07T12:12:59;18.00;17.10
326;DHT22;150;52.352;14.058;2023-05-07T12:15:36;17.80;16.20
326;DHT22;150;52.352;14.058;2023-05-07T12:21:02;18.00;18.10
326;DHT22;150;52.352;14.058;2023-05-07T12:23:34;18.30;19.80
326;DHT22;150;52.352;14.058;2023-05-07T12:26:53;18.40;18.00
326;DHT22;150;52.352;14.058;2023-05-07T12:29:38;18.60;17.70
326;DHT22;150;52.352;14.058;2023-05-07T12:32:21;18.90;18.30
326;DHT22;150;52.352;14.058;2023-05-07T12:35:15;18.70;16.90
326;DHT22;150;52.352;14.058;2023-05-07T12:38:44;18.10;17.40
326;DHT22;150;52.352;14.058;2023-05-07T12:41:23;17.80;19.40
326;DHT22;150;52.352;14.058;2023-05-07T12:44:04;17.20;19.00
326;DHT22;150;52.352;14.058;2023-05-07T12:46:38;17.10;19.10
326;DHT22;150;52.352;14.058;2023-05-07T12:49:12;17.00;19.50
326;DHT22;150;52.352;14.058;2023-05-07T12:51:39;16.90;19.50
326;DHT22;150;52.352;14.058;2023-05-07T12:54:14;16.70;20.30
326;DHT22;150;52.352;14.058;2023-05-07T12:56:41;16.60;19.90
326;DHT22;150;52.352;14.058;2023-05-07T12:59:10;16.50;19.50
326;DHT22;150;52.352;14.058;2023-05-07T13:05:40;16.50;20.50
326;DHT22;150;52.352;14.058;2023-05-07T13:08:32;16.60;20.20
326;DHT22;150;52.352;14.058;2023-05-07T13:11:10;16.70;19.30
326;DHT22;150;52.352;14.058;2023-05-07T13:13:44;16.80;19.40
326;DHT22;150;52.352;14.058;2023-05-07T13:17:12;17.00;20.20
326;DHT22;150;52.352;14.058;2023-05-07T13:20:00;17.40;19.80
326;DHT22;150;52.352;14.058;2023-05-07T13:23:07;17.30;18.70
326;DHT22;150;52.352;14.058;2023-05-07T13:25:45;17.10;18.80
326;DHT22;150;52.352;14.058;2023-05-07T13:28:26;17.10;18.70
326;DHT22;150;52.352;14.058;2023-05-07T13:31:07;17.20;19.00
326;DHT22;150;52.352;14.058;2023-05-07T13:33:37;17.30;18.80
326;DHT22;150;52.352;14.058;2023-05-07T13:36:04;17.30;18.60
326;DHT22;150;52.352;14.058;2023-05-07T13:38:33;17.30;18.00
326;DHT22;150;52.352;14.058;2023-05-07T13:41:11;17.40;17.70
326;DHT22;150;52.352;14.058;2023-05-07T13:46:53;17.60;17.20
326;DHT22;150;52.352;14.058;2023-05-07T13:49:26;17.60;18.10
326;DHT22;150;52.352;14.058;2023-05-07T13:51:57;17.80;18.10
326;DHT22;150;52.352;14.058;2023-05-07T13:54:30;17.80;17.40
326;DHT22;150;52.352;14.058;2023-05-07T13:57:12;17.90;17.30
326;DHT22;150;52.352;14.058;2023-05-07T13:59:40;17.90;18.30
326;DHT22;150;52.352;14.058;2023-05-07T14:02:30;18.00;16.70
326;DHT22;150;52.352;14.058;2023-05-07T14:05:17;18.10;16.40
326;DHT22;150;52.352;14.058;2023-05-07T14:08:03;17.90;16.70
326;DHT22;150;52.352;14.058;2023-05-07T14:10:46;17.60;17.30
326;DHT22;150;52.352;14.058;2023-05-07T14:13:22;17.20;17.60
326;DHT22;150;52.352;14.058;2023-05-07T14:15:58;17.20;18.00
326;DHT22;150;52.352;14.058;2023-05-07T14:18:28;17.00;18.10
326;DHT22;150;52.352;14.058;2023-05-07T14:21:09;17.00;18.30
326;DHT22;150;52.352;14.058;2023-05-07T14:23:46;17.00;18.80
326;DHT22;150;52.352;14.058;2023-05-07T14:26:35;16.80;18.20
326;DHT22;150;52.352;14.058;2023-05-07T14:29:03;16.90;18.10
326;DHT22;150;52.352;14.058;2023-05-07T14:31:43;16.80;18.80
326;DHT22;150;52.352;14.058;2023-05-07T14:34:19;16.80;19.40
326;DHT22;150;52.352;14.058;2023-05-07T14:36:46;16.80;18.60
326;DHT22;150;52.352;14.058;2023-05-07T14:39:13;16.60;18.30
326;DHT22;150;52.352;14.058;2023-05-07T14:42:04;16.60;18.50
326;DHT22;150;52.352;14.058;2023-05-07T14:44:36;16.50;19.20
326;DHT22;150;52.352;14.058;2023-05-07T14:47:10;16.40;19.10
326;DHT22;150;52.352;14.058;2023-05-07T14:49:46;16.50;19.20
326;DHT22;150;52.352;14.058;2023-05-07T14:52:15;16.70;19.00
326;DHT22;150;52.352;14.058;2023-05-07T14:54:49;16.80;18.60
326;DHT22;150;52.352;14.058;2023-05-07T14:57:40;17.00;18.70
326;DHT22;150;52.352;14.058;2023-05-07T15:00:27;17.20;17.00
326;DHT22;150;52.352;14.058;2023-05-07T15:03:07;17.40;17.70
326;DHT22;150;52.352;14.058;2023-05-07T15:05:37;17.20;17.80
326;DHT22;150;52.352;14.058;2023-05-07T15:08:05;17.10;18.10
326;DHT22;150;52.352;14.058;2023-05-07T15:10:59;16.80;19.00
326;DHT22;150;52.352;14.058;2023-05-07T15:13:38;16.60;19.20
326;DHT22;150;52.352;14.058;2023-05-07T15:16:07;16.60;18.70
326;DHT22;150;52.352;14.058;2023-05-07T15:18:34;16.60;19.30
326;DHT22;150;52.352;14.058;2023-05-07T15:21:01;16.60;19.00
326;DHT22;150;52.352;14.058;2023-05-07T15:23:28;16.60;19.90
326;DHT22;150;52.352;14.058;2023-05-07T15:25:59;16.50;19.20
326;DHT22;150;52.352;14.058;2023-05-07T15:28:38;16.50;19.20
326;DHT22;150;52.352;14.058;2023-05-07T15:31:24;16.40;19.10
326;DHT22;150;52.352;14.058;2023-05-07T15:34:46;16.30;19.10
326;DHT22;150;52.352;14.058;2023-05-07T15:37:42;16.20;19.10
326;DHT22;150;52.352;14.058;2023-05-07T15:40:17;16.30;19.50
326;DHT22;150;52.352;14.058;2023-05-07T15:42:46;16.30;19.80
326;DHT22;150;52.352;14.058;2023-05-07T15:45:17;16.30;19.70
326;DHT22;150;52.352;14.058;2023-05-07T15:48:27;16.30;19.90
326;DHT22;150;52.352;14.058;2023-05-07T15:51:13;16.20;19.70
326;DHT22;150;52.352;14.058;2023-05-07T15:53:49;16.10;20.10
326;DHT22;150;52.352;14.058;2023-05-07T15:56:27;16.00;19.80
326;DHT22;150;52.352;14.058;2023-05-07T15:59:00;16.10;20.20
326;DHT22;150;52.352;14.058;2023-05-07T16:01:36;16.10;19.90
326;DHT22;150;52.352;14.058;2023-05-07T16:04:06;16.10;20.30
326;DHT22;150;52.352;14.058;2023-05-07T16:06:43;16.10;20.10
326;DHT22;150;52.352;14.058;2023-05-07T16:09:21;15.90;20.00
326;DHT22;150;52.352;14.058;2023-05-07T16:11:56;15.70;20.30
326;DHT22;150;52.352;14.058;2023-05-07T16:14:23;15.70;20.80
326;DHT22;150;52.352;14.058;2023-05-07T16:16:54;15.80;20.30
326;DHT22;150;52.352;14.058;2023-05-07T16:19:44;15.70;20.20
326;DHT22;150;52.352;14.058;2023-05-07T16:22:11;15.70;20.50
326;DHT22;150;52.352;14.058;2023-05-07T16:24:38;15.70;20.70
326;DHT22;150;52.352;14.058;2023-05-07T16:27:26;15.90;20.70
326;DHT22;150;52.352;14.058;2023-05-07T16:30:10;16.00;20.40
326;DHT22;150;52.352;14.058;2023-05-07T16:33:08;16.00;20.40
326;DHT22;150;52.352;14.058;2023-05-07T16:35:55;15.80;20.40
326;DHT22;150;52.352;14.058;2023-05-07T16:38:27;15.60;21.90
326;DHT22;150;52.352;14.058;2023-05-07T16:41:00;15.60;21.40
326;DHT22;150;52.352;14.058;2023-05-07T16:43:41;15.50;21.30
326;DHT22;150;52.352;14.058;2023-05-07T16:46:08;15.30;21.50
326;DHT22;150;52.352;14.058;2023-05-07T16:48:38;15.40;21.40
326;DHT22;150;52.352;14.058;2023-05-07T16:51:22;15.40;21.60
326;DHT22;150;52.352;14.058;2023-05-07T16:54:00;15.40;21.60
326;DHT22;150;52.352;14.058;2023-05-07T16:56:40;15.50;21.60
326;DHT22;150;52.352;14.058;2023-05-07T17:00:00;15.60;20.30
326;DHT22;150;52.352;14.058;2023-05-07T17:02:48;15.60;20.30
326;DHT22;150;52.352;14.058;2023-05-07T17:05:34;15.60;19.70
326;DHT22;150;52.352;14.058;2023-05-07T17:08:29;15.60;20.30
326;DHT22;150;52.352;14.058;2023-05-07T17:10:58;15.70;19.50
326;DHT22;150;52.352;14.058;2023-05-07T17:13:43;15.70;19.20
326;DHT22;150;52.352;14.058;2023-05-07T17:16:54;15.50;20.00
326;DHT22;150;52.352;14.058;2023-05-07T17:19:37;15.30;21.30
326;DHT22;150;52.352;14.058;2023-05-07T17:22:22;15.10;20.80
326;DHT22;150;52.352;14.058;2023-05-07T17:25:03;14.90;21.10
326;DHT22;150;52.352;14.058;2023-05-07T17:27:37;14.90;21.20
326;DHT22;150;52.352;14.058;2023-05-07T17:30:24;15.00;21.50
326;DHT22;150;52.352;14.058;2023-05-07T17:33:46;14.90;21.50
326;DHT22;150;52.352;14.058;2023-05-07T17:36:12;14.80;21.50
326;DHT22;150;52.352;14.058;2023-05-07T17:39:09;14.80;21.80
326;DHT22;150;52.352;14.058;2023-05-07T17:44:56;14.80;22.30
326;DHT22;150;52.352;14.058;2023-05-07T17:47:23;14.70;21.40
326;DHT22;150;52.352;14.058;2023-05-07T17:50:00;14.50;20.50
326;DHT22;150;52.352;14.058;2023-05-07T17:52:45;14.50;20.80
326;DHT22;150;52.352;14.058;2023-05-07T17:58:34;14.40;20.50
326;DHT22;150;52.352;14.058;2023-05-07T18:01:05;14.40;20.20
326;DHT22;150;52.352;14.058;2023-05-07T18:03:45;14.40;20.50
326;DHT22;150;52.352;14.058;2023-05-07T18:06:12;14.50;19.60
326;DHT22;150;52.352;14.058;2023-05-07T18:08:51;14.50;19.90
326;DHT22;150;52.352;14.058;2023-05-07T18:11:27;14.60;19.80
326;DHT22;150;52.352;14.058;2023-05-07T18:14:14;14.70;20.30
326;DHT22;150;52.352;14.058;2023-05-07T18:16:57;14.70;20.50
326;DHT22;150;52.352;14.058;2023-05-07T18:19:29;14.80;20.20
326;DHT22;150;52.352;14.058;2023-05-07T18:22:05;14.70;20.60
326;DHT22;150;52.352;14.058;2023-05-07T18:24:37;14.60;20.80
326;DHT22;150;52.352;14.058;2023-05-07T18:27:32;14.60;20.80
326;DHT22;150;52.352;14.058;2023-05-07T18:30:25;14.40;20.80
326;DHT22;150;52.352;14.058;2023-05-07T18:32:58;14.20;21.60
326;DHT22;150;52.352;14.058;2023-05-07T18:35:36;14.20;21.90
326;DHT22;150;52.352;14.058;2023-05-07T18:38:28;14.20;22.00
326;DHT22;150;52.352;14.058;2023-05-07T18:41:23;14.20;22.10
326;DHT22;150;52.352;14.058;2023-05-07T18:44:20;14.20;21.90
326;DHT22;150;52.352;14.058;2023-05-07T18:47:05;14.20;22.00
326;DHT22;150;52.352;14.058;2023-05-07T18:50:05;14.10;22.10
326;DHT22;150;52.352;14.058;2023-05-07T18:52:53;14.00;22.50
326;DHT22;150;52.352;14.058;2023-05-07T18:55:37;13.80;22.80
326;DHT22;150;52.352;14.058;2023-05-07T18:58:21;13.80;23.00
326;DHT22;150;52.352;14.058;2023-05-07T19:00:53;13.80;23.10
326;DHT22;150;52.352;14.058;2023-05-07T19:03:42;13.70;23.10
326;DHT22;150;52.352;14.058;2023-05-07T19:06:38;13.70;23.40
326;DHT22;150;52.352;14.058;2023-05-07T19:09:23;13.70;23.50
326;DHT22;150;52.352;14.058;2023-05-07T19:12:00;13.70;23.70
326;DHT22;150;52.352;14.058;2023-05-07T19:14:49;13.70;23.60
326;DHT22;150;52.352;14.058;2023-05-07T19:17:23;13.70;23.90
326;DHT22;150;52.352;14.058;2023-05-07T19:20:30;13.70;24.00
326;DHT22;150;52.352;14.058;2023-05-07T19:23:08;13.70;23.80
326;DHT22;150;52.352;14.058;2023-05-07T19:36:21;13.50;24.70
326;DHT22;150;52.352;14.058;2023-05-07T19:39:11;13.40;24.90
326;DHT22;150;52.352;14.058;2023-05-07T19:41:45;13.40;25.10
326;DHT22;150;52.352;14.058;2023-05-07T19:44:27;13.30;25.50
326;DHT22;150;52.352;14.058;2023-05-07T19:47:00;13.20;25.70
326;DHT22;150;52.352;14.058;2023-05-07T19:49:31;13.00;25.60
326;DHT22;150;52.352;14.058;2023-05-07T19:52:10;12.90;25.80
326;DHT22;150;52.352;14.058;2023-05-07T19:54:42;12.90;26.40
326;DHT22;150;52.352;14.058;2023-05-07T19:58:00;12.80;26.70
326;DHT22;150;52.352;14.058;2023-05-07T20:00:38;12.80;26.70
326;DHT22;150;52.352;14.058;2023-05-07T20:03:44;12.70;26.90
326;DHT22;150;52.352;14.058;2023-05-07T20:09:49;12.60;27.40
326;DHT22;150;52.352;14.058;2023-05-07T20:12:28;12.60;27.80
326;DHT22;150;52.352;14.058;2023-05-07T20:15:18;12.60;27.70
326;DHT22;150;52.352;14.058;2023-05-07T20:18:01;12.60;27.80
326;DHT22;150;52.352;14.058;2023-05-07T20:20:33;12.50;28.10
326;DHT22;150;52.352;14.058;2023-05-07T20:23:13;12.50;28.00
326;DHT22;150;52.352;14.058;2023-05-07T20:26:04;12.50;28.20
326;DHT22;150;52.352;14.058;2023-05-07T20:29:08;12.50;28.10
326;DHT22;150;52.352;14.058;2023-05-07T20:31:53;12.30;28.00
326;DHT22;150;52.352;14.058;2023-05-07T20:34:22;12.30;28.40
326;DHT22;150;52.352;14.058;2023-05-07T20:36:52;12.30;28.40
326;DHT22;150;52.352;14.058;2023-05-07T20:39:19;12.20;28.50
326;DHT22;150;52.352;14.058;2023-05-07T20:41:48;12.20;28.80
326;DHT22;150;52.352;14.058;2023-05-07T20:44:20;12.10;28.90
326;DHT22;150;52.352;14.058;2023-05-07T20:46:49;12.10;29.20
326;DHT22;150;52.352;14.058;2023-05-07T20:49:40;12.10;29.30
326;DHT22;150;52.352;14.058;2023-05-07T20:52:31;12.10;29.20
326;DHT22;150;52.352;14.058;2023-05-07T20:55:37;12.00;29.20
326;DHT22;150;52.352;14.058;2023-05-07T20:58:37;12.00;29.40
326;DHT22;150;52.352;14.058;2023-05-07T21:01:12;12.00;29.70
326;DHT22;150;52.352;14.058;2023-05-07T21:03:54;11.90;29.40
326;DHT22;150;52.352;14.058;2023-05-07T21:06:28;11.80;29.70
326;DHT22;150;52.352;14.058;2023-05-07T21:09:09;11.80;30.00
326;DHT22;150;52.352;14.058;2023-05-07T21:11:36;11.80;29.90
326;DHT22;150;52.352;14.058;2023-05-07T21:14:07;11.80;29.80
326;DHT22;150;52.352;14.058;2023-05-07T21:16:38;11.70;30.00
326;DHT22;150;52.352;14.058;2023-05-07T21:19:11;11.60;30.20
326;DHT22;150;52.352;14.058;2023-05-07T21:21:40;11.50;30.40
326;DHT22;150;52.352;14.058;2023-05-07T21:24:32;11.30;31.00
326;DHT22;150;52.352;14.058;2023-05-07T21:27:02;11.20;31.50
326;DHT22;150;52.352;14.058;2023-05-07T21:29:38;11.20;31.80
326;DHT22;150;52.352;14.058;2023-05-07T21:32:05;11.20;32.00
326;DHT22;150;52.352;14.058;2023-05-07T21:34:35;11.20;32.20
326;DHT22;150;52.352;14.058;2023-05-07T21:37:02;11.20;32.30
326;DHT22;150;52.352;14.058;2023-05-07T21:39:29;11.30;33.00
326;DHT22;150;52.352;14.058;2023-05-07T21:41:56;11.30;32.00
326;DHT22;150;52.352;14.058;2023-05-07T21:44:23;11.30;32.00
326;DHT22;150;52.352;14.058;2023-05-07T21:46:51;11.20;31.80
326;DHT22;150;52.352;14.058;2023-05-07T21:49:20;11.10;31.80
326;DHT22;150;52.352;14.058;2023-05-07T21:51:47;11.10;32.10
326;DHT22;150;52.352;14.058;2023-05-07T21:54:14;11.10;32.10
326;DHT22;150;52.352;14.058;2023-05-07T21:56:41;11.00;32.30
326;DHT22;150;52.352;14.058;2023-05-07T21:59:07;10.90;32.60
326;DHT22;150;52.352;14.058;2023-05-07T22:01:34;10.80;33.10
326;DHT22;150;52.352;14.058;2023-05-07T22:04:03;10.80;33.10
326;DHT22;150;52.352;14.058;2023-05-07T22:06:30;10.70;33.00
326;DHT22;150;52.352;14.058;2023-05-07T22:08:57;10.60;33.10
326;DHT22;150;52.352;14.058;2023-05-07T22:11:24;10.50;33.70
326;DHT22;150;52.352;14.058;2023-05-07T22:13:51;10.50;34.10
326;DHT22;150;52.352;14.058;2023-05-07T22:16:17;10.60;34.30
326;DHT22;150;52.352;14.058;2023-05-07T22:18:44;10.60;34.10
326;DHT22;150;52.352;14.058;2023-05-07T22:21:15;10.60;34.30
326;DHT22;150;52.352;14.058;2023-05-07T22:23:42;10.50;34.20
326;DHT22;150;52.352;14.058;2023-05-07T22:26:09;10.50;34.80
326;DHT22;150;52.352;14.058;2023-05-07T22:28:36;10.50;34.80
326;DHT22;150;52.352;14.058;2023-05-07T22:31:03;10.50;35.20
326;DHT22;150;52.352;14.058;2023-05-07T22:33:30;10.40;35.20
326;DHT22;150;52.352;14.058;2023-05-07T22:35:57;10.40;35.30
326;DHT22;150;52.352;14.058;2023-05-07T22:38:25;10.40;35.00
326;DHT22;150;52.352;14.058;2023-05-07T22:40:52;10.40;35.00
326;DHT22;150;52.352;14.058;2023-05-07T22:43:19;10.40;35.10
326;DHT22;150;52.352;14.058;2023-05-07T22:45:48;10.20;36.10
326;DHT22;150;52.352;14.058;2023-05-07T22:48:15;10.20;35.80
326;DHT22;150;52.352;14.058;2023-05-07T22:50:42;10.00;36.40
326;DHT22;150;52.352;14.058;2023-05-07T22:53:12;9.90;37.50
326;DHT22;150;52.352;14.058;2023-05-07T22:55:43;9.90;37.90
326;DHT22;150;52.352;14.058;2023-05-07T22:58:10;9.80;37.90
326;DHT22;150;52.352;14.058;2023-05-07T23:00:37;9.80;38.30
326;DHT22;150;52.352;14.058;2023-05-07T23:03:04;9.70;38.50
326;DHT22;150;52.352;14.058;2023-05-07T23:05:31;9.70;39.00
326;DHT22;150;52.352;14.058;2023-05-07T23:07:58;9.70;39.30
326;DHT22;150;52.352;14.058;2023-05-07T23:10:25;9.70;39.40
326;DHT22;150;52.352;14.058;2023-05-07T23:12:55;9.60;39.00
326;DHT22;150;52.352;14.058;2023-05-07T23:15:22;9.60;39.40
326;DHT22;150;52.352;14.058;2023-05-07T23:17:49;9.60;39.30
326;DHT22;150;52.352;14.058;2023-05-07T23:20:15;9.60;39.10
326;DHT22;150;52.352;14.058;2023-05-07T23:22:42;9.60;39.20
326;DHT22;150;52.352;14.058;2023-05-07T23:25:09;9.60;39.70
326;DHT22;150;52.352;14.058;2023-05-07T23:27:36;9.50;39.30
326;DHT22;150;52.352;14.058;2023-05-07T23:30:06;9.50;39.90
326;DHT22;150;52.352;14.058;2023-05-07T23:32:33;9.50;40.00
326;DHT22;150;52.352;14.058;2023-05-07T23:35:00;9.60;39.90
326;DHT22;150;52.352;14.058;2023-05-07T23:37:27;9.60;40.10
326;DHT22;150;52.352;14.058;2023-05-07T23:39:54;9.70;39.70
326;DHT22;150;52.352;14.058;2023-05-07T23:42:21;9.70;39.20
326;DHT22;150;52.352;14.058;2023-05-07T23:44:48;9.80;38.80
326;DHT22;150;52.352;14.058;2023-05-07T23:47:16;9.80;38.30
326;DHT22;150;52.352;14.058;2023-05-07T23:49:43;9.70;38.30
326;DHT22;150;52.352;14.058;2023-05-07T23:52:10;9.70;38.20
326;DHT22;150;52.352;14.058;2023-05-07T23:54:37;9.70;38.50
326;DHT22;150;52.352;14.058;2023-05-07T23:57:03;9.70;38.20
326;DHT22;150;52.352;14.058;2023-05-07T23:59:30;9.70;37.90
